createdAt,value
2023-04-03T00:02:03.947Z,75.33
2023-04-03T00:07:08.656Z,75.12
2023-04-03T00:12:12.028Z,75.14
2023-04-03T00:17:15.103Z,75.44
2023-04-03T00:22:19.786Z,75.41
2023-04-03T00:27:23.132Z,74.96
2023-04-03T00:32:26.430Z,74.96
2023-04-03T00:37:32.550Z,75.70
2023-04-03T00:42:35.792Z,75.70
2023-04-03T00:47:41.142Z,75.59
2023-04-03T00:52:48.506Z,76.12
2023-04-03T00:57:52.143Z,76.39
2023-04-03T01:02:57.483Z,76.58
2023-04-03T01:08:06.109Z,77.25
2023-04-03T01:13:24.944Z,77.93
2023-04-03T01:18:29.664Z,77.30
2023-04-03T01:23:52.004Z,78.30
2023-04-03T01:28:56.882Z,77.88
2023-04-03T01:34:02.552Z,78.50
2023-04-03T01:39:08.326Z,79.28
2023-04-03T01:44:11.963Z,79.55
2023-04-03T01:49:16.690Z,79.73
2023-04-03T01:54:21.503Z,79.93
2023-04-03T01:59:24.667Z,79.91
2023-04-03T02:04:29.389Z,80.04
2023-04-03T02:09:32.772Z,80.34
2023-04-03T02:14:35.963Z,80.84
2023-04-03T02:19:40.758Z,80.86
2023-04-03T02:24:43.830Z,81.12
2023-04-03T02:29:46.997Z,81.14
2023-04-03T02:34:51.533Z,81.71
2023-04-03T02:39:54.671Z,82.35
2023-04-03T02:44:59.473Z,82.10
2023-04-03T02:50:05.985Z,83.16
2023-04-03T02:55:09.955Z,83.58
2023-04-03T03:00:14.209Z,84.10
2023-04-03T03:05:19.482Z,84.80
2023-04-03T03:10:22.962Z,85.43
2023-04-03T03:15:26.254Z,85.71
2023-04-03T03:20:30.834Z,85.95
2023-04-03T03:25:34.122Z,86.74
2023-04-03T03:30:37.410Z,87.15
2023-04-03T03:35:42.945Z,87.71
2023-04-03T03:40:46.448Z,88.08
2023-04-03T03:45:53.606Z,88.53
2023-04-03T03:50:58.316Z,88.97
2023-04-03T03:56:03.580Z,89.46
2023-04-03T04:01:08.797Z,89.90
2023-04-03T04:06:14.025Z,90.42
2023-04-03T04:11:17.261Z,90.89
2023-04-03T04:16:20.572Z,91.15
2023-04-03T04:21:25.158Z,91.76
2023-04-03T04:26:28.467Z,92.25
2023-04-03T04:31:34.878Z,92.52
2023-04-03T04:36:39.762Z,92.69
2023-04-03T04:41:42.877Z,92.82
2023-04-03T04:46:46.665Z,92.84
2023-04-03T04:51:52.513Z,92.47
2023-04-03T04:56:57.363Z,92.95
2023-04-03T05:02:01.763Z,93.09
2023-04-03T05:07:08.322Z,92.77
2023-04-03T05:12:12.127Z,92.54
2023-04-03T05:17:18.535Z,92.65
2023-04-03T05:22:23.451Z,92.69
2023-04-03T05:27:29.365Z,92.27
2023-04-03T05:32:32.580Z,92.08
2023-04-03T05:37:42.123Z,92.15
2023-04-03T05:42:45.459Z,91.79
2023-04-03T05:47:48.964Z,91.77
2023-04-03T05:52:56.369Z,90.84
2023-04-03T05:57:59.686Z,90.60
2023-04-03T06:03:03.318Z,90.07
2023-04-03T06:08:08.379Z,85.43
2023-04-03T06:13:11.855Z,72.69
2023-04-03T06:18:15.387Z,66.47
2023-04-03T06:23:20.110Z,61.54
2023-04-03T06:28:25.769Z,56.20
2023-04-03T06:33:29.944Z,51.77
2023-04-03T06:38:35.331Z,47.48
2023-04-03T06:43:38.441Z,45.60
2023-04-03T06:48:42.139Z,42.17
2023-04-03T06:53:48.440Z,40.13
2023-04-03T06:58:52.732Z,38.98
2023-04-03T07:03:57.016Z,39.10
2023-04-03T07:09:02.350Z,36.35
2023-04-03T07:14:06.808Z,37.41
2023-04-03T07:19:13.280Z,34.93
2023-04-03T07:24:18.422Z,35.14
2023-04-03T07:29:22.675Z,34.44
2023-04-03T07:34:26.330Z,36.34
2023-04-03T07:39:33.029Z,36.41
2023-04-03T07:44:36.751Z,34.41
2023-04-03T07:49:41.620Z,34.50
2023-04-03T07:54:46.754Z,33.61
2023-04-03T07:59:49.909Z,34.80
2023-04-03T08:04:53.295Z,35.07
2023-04-03T08:09:58.300Z,34.41
2023-04-03T08:15:02.796Z,36.37
2023-04-03T08:20:07.880Z,37.90
2023-04-03T08:25:12.977Z,39.79
2023-04-03T08:30:16.731Z,40.07
2023-04-03T08:35:21.639Z,42.17
2023-04-03T08:40:26.827Z,42.21
2023-04-03T08:45:43.658Z,42.84
2023-04-03T08:50:52.957Z,43.20
2023-04-03T08:55:59.139Z,42.93
2023-04-03T09:01:06.035Z,43.41
2023-04-03T09:06:16.210Z,44.19
2023-04-03T09:11:27.982Z,44.73
2023-04-03T09:16:41.750Z,42.98
2023-04-03T09:21:45.292Z,41.78
2023-04-03T09:26:55.937Z,42.31
2023-04-03T09:32:02.204Z,43.34
2023-04-03T09:37:08.394Z,43.25
2023-04-03T09:42:21.985Z,41.90
2023-04-03T09:47:27.525Z,43.40
2023-04-03T09:52:32.640Z,42.41
2023-04-03T09:57:37.562Z,43.22
2023-04-03T10:02:54.613Z,44.30
2023-04-03T10:08:13.965Z,44.76
2023-04-03T10:13:22.433Z,43.38
2023-04-03T10:18:35.338Z,42.42
2023-04-03T10:23:52.861Z,41.44
2023-04-03T10:29:11.694Z,42.39
2023-04-03T10:34:25.737Z,42.20
2023-04-03T10:39:36.157Z,41.82
2023-04-03T10:44:54.927Z,43.36
2023-04-03T10:50:09.477Z,43.86
2023-04-03T10:55:38.271Z,44.50
2023-04-03T11:00:48.326Z,42.48
2023-04-03T11:05:55.865Z,43.18
2023-04-03T11:11:07.176Z,42.35
2023-04-03T11:16:17.394Z,42.05
2023-04-03T11:21:24.456Z,42.66
2023-04-03T11:26:33.590Z,41.58
2023-04-03T11:31:50.251Z,42.26
2023-04-03T11:36:58.822Z,42.15
2023-04-03T11:42:17.987Z,43.10
2023-04-03T11:47:52.284Z,44.29
2023-04-03T11:53:06.204Z,43.93
2023-04-03T11:58:16.270Z,43.16
2023-04-03T12:04:08.363Z,43.02
2023-04-03T12:09:25.821Z,42.78
2023-04-03T12:14:33.254Z,42.89
2023-04-03T12:19:45.979Z,43.48
2023-04-03T12:24:52.969Z,43.47
2023-04-03T12:30:08.096Z,42.81
2023-04-03T12:35:22.545Z,42.47
2023-04-03T12:40:34.102Z,42.43
2023-04-03T12:45:46.059Z,42.93
2023-04-03T12:50:52.894Z,42.89
2023-04-03T12:55:57.152Z,42.95
2023-04-03T13:01:04.979Z,42.89
2023-04-03T13:06:19.728Z,42.06
2023-04-03T13:11:25.500Z,43.95
2023-04-03T13:16:29.119Z,44.26
2023-04-03T13:21:38.029Z,43.06
2023-04-03T13:26:41.804Z,43.36
2023-04-03T13:31:45.202Z,43.08
2023-04-03T13:36:58.849Z,42.20
2023-04-03T13:42:04.649Z,42.01
2023-04-03T13:47:21.479Z,41.54
2023-04-03T13:52:31.969Z,42.06
2023-04-03T13:57:36.316Z,42.57
2023-04-03T14:02:41.839Z,43.01
2023-04-03T14:07:49.272Z,43.63
2023-04-03T14:12:52.703Z,43.65
2023-04-03T14:17:59.184Z,43.91
2023-04-03T14:23:05.478Z,43.33
2023-04-03T14:28:18.780Z,44.23
2023-04-03T14:33:24.598Z,44.45
2023-04-03T14:38:34.840Z,45.29
2023-04-03T14:43:38.227Z,43.66
2023-04-03T14:48:42.267Z,43.39
2023-04-03T14:53:51.174Z,43.58
2023-04-03T14:59:03.221Z,43.53
2023-04-03T15:04:14.489Z,44.00
2023-04-03T15:09:23.209Z,43.60
2023-04-03T15:14:36.501Z,43.25
2023-04-03T15:19:43.644Z,43.05
2023-04-03T15:24:48.375Z,43.31
2023-04-03T15:29:51.695Z,43.46
2023-04-03T15:34:59.116Z,44.04
2023-04-03T15:40:03.770Z,43.85
2023-04-03T15:45:09.088Z,44.25
2023-04-03T15:50:12.730Z,45.14
2023-04-03T15:55:18.299Z,44.28
2023-04-03T16:00:26.969Z,45.13
2023-04-03T16:05:30.726Z,44.35
2023-04-03T16:10:42.980Z,44.57
2023-04-03T16:15:46.537Z,45.25
2023-04-03T16:20:53.693Z,45.21
2023-04-03T16:25:58.342Z,44.75
2023-04-03T16:31:14.608Z,46.45
2023-04-03T16:36:21.406Z,46.00
2023-04-03T16:41:26.078Z,46.09
2023-04-03T16:46:30.977Z,47.13
2023-04-03T16:51:34.424Z,47.09
2023-04-03T16:56:39.196Z,47.06
2023-04-03T17:01:42.930Z,47.48
2023-04-03T17:06:46.267Z,47.10
2023-04-03T17:11:54.442Z,47.03
2023-04-03T17:16:58.178Z,47.62
2023-04-03T17:22:04.304Z,47.86
2023-04-03T17:27:13.280Z,48.27
2023-04-03T17:32:17.105Z,48.64
2023-04-03T17:37:29.643Z,48.59
2023-04-03T17:42:34.305Z,48.81
2023-04-03T17:47:39.464Z,48.84
2023-04-03T17:52:43.437Z,49.31
2023-04-03T17:57:53.741Z,50.04
2023-04-03T18:02:57.469Z,50.13
2023-04-03T18:08:13.745Z,51.24
2023-04-03T18:13:21.853Z,51.44
2023-04-03T18:18:26.568Z,49.19
2023-04-03T18:23:36.262Z,48.49
2023-04-03T18:28:51.275Z,48.57
2023-04-03T18:33:59.263Z,49.43
2023-04-03T18:39:05.199Z,48.45
2023-04-03T18:44:18.487Z,48.82
2023-04-03T18:49:22.626Z,48.12
2023-04-03T18:54:27.297Z,48.64
2023-04-03T18:59:37.738Z,49.13
2023-04-03T19:04:43.790Z,48.93
2023-04-03T19:09:54.614Z,49.38
2023-04-03T19:14:59.157Z,50.30
2023-04-03T19:20:03.682Z,49.99
2023-04-03T19:25:08.582Z,50.35
2023-04-03T19:30:18.538Z,50.34
2023-04-03T19:35:21.834Z,50.97
2023-04-03T19:40:33.709Z,51.40
2023-04-03T19:45:46.080Z,52.36
2023-04-03T19:50:49.973Z,52.19
2023-04-03T19:55:58.070Z,52.32
2023-04-03T20:01:02.745Z,52.16
2023-04-03T20:06:14.895Z,52.50
2023-04-03T20:11:18.566Z,52.95
2023-04-03T20:16:26.967Z,53.19
2023-04-03T20:21:35.778Z,52.99
2023-04-03T20:26:46.275Z,53.31
2023-04-03T20:31:53.494Z,53.54
2023-04-03T20:36:57.137Z,54.21
2023-04-03T20:42:00.741Z,54.08
2023-04-03T20:47:05.886Z,54.17
2023-04-03T20:52:10.363Z,54.00
2023-04-03T20:57:16.757Z,54.08
2023-04-03T21:02:21.885Z,54.33
2023-04-03T21:08:03.227Z,54.64
2023-04-03T21:13:43.581Z,54.61
2023-04-03T21:19:09.959Z,55.39
2023-04-03T21:24:14.753Z,54.83
2023-04-03T21:29:17.989Z,55.15
2023-04-03T21:34:25.213Z,55.44
2023-04-03T21:39:31.359Z,55.69
2023-04-03T21:44:34.587Z,55.80
2023-04-03T21:49:39.141Z,56.23
2023-04-03T21:54:42.565Z,56.15
2023-04-03T21:59:46.528Z,56.63
2023-04-03T22:04:51.432Z,57.03
2023-04-03T22:09:54.734Z,57.58
2023-04-03T22:14:58.286Z,57.56
2023-04-03T22:20:03.607Z,58.25
2023-04-03T22:25:07.566Z,58.51
2023-04-03T22:30:11.711Z,58.95
2023-04-03T22:35:17.082Z,59.38
2023-04-03T22:40:20.488Z,59.17
2023-04-03T22:45:23.665Z,59.41
2023-04-03T22:50:28.392Z,60.15
2023-04-03T22:55:31.632Z,59.88
2023-04-03T23:00:35.025Z,60.67
2023-04-03T23:05:42.320Z,61.96
2023-04-03T23:10:45.555Z,61.81
2023-04-03T23:15:54.308Z,61.96
2023-04-03T23:21:00.073Z,62.12
2023-04-03T23:26:04.081Z,62.67
2023-04-03T23:31:08.225Z,63.24
2023-04-03T23:36:16.096Z,63.55
2023-04-03T23:41:19.694Z,63.72
2023-04-03T23:46:23.330Z,64.64
2023-04-03T23:51:28.437Z,64.27
2023-04-03T23:56:32.343Z,64.75
